x

San Francisco - 18nm West Of San Francisco, Ca (46026) Wave Buoy

7:50am - Thu 18th Dec 2014 All times are PST. -8 hours from GMT.

  • Sig Wave height 7.9ft
  • Swell Direction
  • Peak Period 14s
  • Average Period 7s
  • Wind
    16mph, 18mph gusts
  • Sea Temp 60°f
  • Air Temp 58°f
  • Sea Pressure 1019.8mb
  • San Francisco - 18nm West Of San Francisco, Ca
  • San Francisco - 18nm West Of San Francisco, Ca

More Historic Weather Station data

Upgrade to MSW Pro to gain access to the past 30 days of data for over 8000 Wavebouys and Weather Stations around the globe.

Join Pro

Comparision Forecast

View Surf forecast
   
Thu 12/18 7:50am 8ft 14s 7s 16 18 mph 1019.8mb 60f 58f
6:50am 7ft 13s 7s 16 18 mph 1018.9mb 60f 58f
5:50am 8ft 11s 7s 11 18 mph 1018.9mb 60f 55f
4:50am 8ft 15s 7s 16 20 mph 1018.3mb 60f 57f
3:50am 8ft 15s 7s 18 20 mph 1017.6mb 60f 57f
2:50am 8.5ft 15s 7s 20 25 mph 1017.5mb 60f 56f
1:50am 8ft 14s 6s 20 27 mph 1017.4mb 60f 56f
12:50am 9ft 13s 6s 22 27 mph 1017.1mb 60f 56f
Wed 12/17 11:50pm 8ft 15s 6s 16 20 mph 1017.3mb 60f 53f
10:50pm 7ft 14s 6s 20 25 mph 1017.3mb 60f 54f
9:50pm 7ft 15s 6s 20 27 mph 1017.1mb 60f 55f
8:50pm 7.5ft 11s 7s 22 27 mph 1017.1mb 60f 54f
7:50pm 7ft 11s 7s 22 27 mph 1017.1mb 60f 55f
6:50pm 7.5ft 15s 7s 20 29 mph 1017.1mb 60f 53f
5:50pm 8ft 11s 8s 20 25 mph 1016.7mb 59f 56f
4:50pm 8ft 11s 8s 11 16 mph 1016.9mb 59f 56f
3:50pm 9ft 11s 8s 11 13 mph 1017.1mb 60f 56f
2:50pm 8.5ft 11s 8s 13 16 mph 1016.7mb 60f 58f
1:50pm 10ft 12s 8s 9 11 mph 1016.7mb 60f 57f
12:50pm 9ft 12s 8s 16 18 mph 1017.5mb 60f 57f
11:50am 10ft 11s 8s 13 16 mph 1017.8mb 60f 59f
10:50am 11ft 12s 8s 11 13 mph 1018.6mb 59f 58f
9:50am 10.5ft 12s 8s 13 18 mph 1018.4mb 59f 58f
8:50am 10.5ft 13s 8s 11 16 mph 1017.2mb 59f 58f
7:50am 11ft 13s 8s 13 18 mph 1016.5mb 59f 58f
6:50am 12ft 12s 8s 13 18 mph 1015.8mb 59f 58f
5:50am 13ft 12s 8s 16 20 mph 1015.1mb 59f 58f
4:50am 12ft 12s 8s 13 16 mph 1014.8mb 59f 57f
3:50am 12.5ft 12s 8s 16 20 mph 1014.6mb 59f 57f
2:50am 11ft 12s 8s 13 18 mph 1014.7mb 59f 57f
1:50am 9ft 11s 7s 20 22 mph 1014.1mb 59f 59f
12:50am 9ft 13s 7s 20 25 mph 1013.8mb 59f 59f
Tue 12/16 11:50pm 8ft 13s 7s 20 25 mph 1013.6mb 59f 59f
10:50pm 8ft 13s 8s 4 9 mph 1013.5mb 59f 57f
9:50pm 8ft 13s 7s 4 7 mph 1013mb 59f 55f
8:50pm 9ft 15s 7s 4 9 mph 1012.3mb 59f 55f
7:50pm 8ft 14s 7s 2 4 mph 1011.9mb 59f 55f
6:50pm 9ft 14s 6s 4 9 mph 1011.4mb 60f 55f
5:50pm 9ft 14s 6s 9 13 mph 1010.9mb 60f 55f
4:50pm 9ft 14s 6s 29 34 mph 1008.8mb 60f 58f
3:50pm 9ft 15s 6s 20 25 mph 1009.3mb 60f 58f
2:50pm 8.5ft 15s 6s 29 36 mph 1009.1mb 60f 58f
1:50pm 9.5ft 14s 7s 25 34 mph 1009.9mb 60f 59f
12:50pm 10ft 14s 7s 25 29 mph 1010.6mb 60f 60f
11:50am 10.5ft 12s 8s 25 31 mph 1011.8mb 60f 59f
10:50am 12ft 15s 9s 22 27 mph 1012.9mb 60f 58f
9:50am 10.5ft 11s 8s 22 27 mph 1013.3mb 60f 58f
8:50am 11.5ft 14s 10s 16 22 mph 1013.3mb 60f 57f
7:50am 10.5ft 15s 10s 13 16 mph 1013.4mb 60f 59f
6:50am 12ft 15s 11s 11 13 mph 1013.3mb 59f 59f
5:50am 11.5ft 15s 10s 9 11 mph 1013mb 59f 58f
4:50am 10.5ft 14s 10s 7 9 mph 1013.2mb 59f 58f
3:50am 10ft 15s 10s 4 7 mph 1013.2mb 59f 58f
2:50am 10ft 16s 10s 4 7 mph 1013.4mb 59f 58f
1:50am 10ft 16s 10s 7 11 mph 1012.9mb 59f 58f
12:50am 10ft 16s 10s 9 13 mph 1012.9mb 59f 57f
Mon 12/15 11:50pm 10ft 16s 10s 9 13 mph 1013.1mb 59f 59f
10:50pm 10ft 17s 10s 9
mph
1012.8mb 59f 58f
9:50pm 10.5ft 17s 9s 4 9 mph 1012.4mb 60f 58f
8:50pm 10ft 17s 9s 11 13 mph 1012.2mb 60f 59f
7:50pm 10.5ft 17s 10s 9 13 mph 1011.7mb 60f 59f
6:50pm 12ft 17s 10s 13 16 mph 1011.3mb 60f 58f
5:50pm 12ft 17s 9s 16 18 mph 1011mb 60f 58f
4:50pm 11.5ft 17s 9s 18 22 mph 1010.6mb 60f 57f
3:50pm 10ft 13s 8s 11 16 mph 1010.4mb 60f 57f
2:50pm 11ft 17s 8s 13 16 mph 1010.2mb 60f 56f
1:50pm 12ft 19s 9s 16 20 mph 1009.9mb 59f 58f
12:50pm 12ft 17s 9s 11 16 mph 1009.7mb 59f 56f
11:50am 12ft 17s 8s 7 9 mph 1011.2mb 59f 55f
10:50am 11ft 17s 8s 13 18 mph 1011mb 60f 55f
9:50am 11ft 17s 7s 16 22 mph 1011.2mb 60f 56f
8:50am 11ft 17s 8s 20 27 mph 1010.6mb 60f 55f
7:50am 11ft 17s 7s 25 31 mph 1010.7mb 60f 54f
6:50am 11ft 19s 7s 29 36 mph 1010.3mb 60f 53f
5:50am 10ft 17s 6s 29 36 mph 1010.2mb 60f 54f
4:50am 10ft 17s 7s 29 38 mph 1010.1mb 60f 53f
3:50am 9.5ft 19s 7s 29 38 mph 1011.2mb 60f 53f
2:50am 9ft 19s 7s 20 27 mph 1013.3mb 60f 53f
1:50am 8ft 19s 6s 22 29 mph 1013.2mb 60f 54f
12:50am 8.5ft 19s 7s 22 27 mph 1013.7mb 60f 55f
Sun 12/14 11:50pm 8ft 19s 6s 22 29 mph 1014.1mb 60f 55f
10:50pm 8ft 13s 6s 22 27 mph 1015.1mb 60f 55f
9:50pm 7.5ft 21s 6s 20 25 mph 1015mb 60f 57f
8:50pm 7ft 13s 6s 22 29 mph 1014.8mb 60f 59f
7:50pm 6.5ft 21s 6s 18 20 mph 1015mb 60f 57f
6:50pm 5.5ft 12s 5s 22 27 mph 1014.7mb 60f 57f
5:50pm 5ft 12s 5s 22 27 mph 1015.2mb 60f 58f